Time;durP1;ratioP1;P1;durP2;ratioP2;P2;SDS_P1;SDS_P2;PMS_P1;PMS_P2;Temp;Humidity;BMP_temperature;BMP_pressure;BME280_temperature;BME280_humidity;BME280_pressure;Samples;Min_cycle;Max_cycle;Signal;HPM_P1;HPM_P2
2021/01/22 00:01:23;;;;;;;3.00;1.83;;;5.40;70.10;;;;;;5019307;28;20249;-83
2021/01/22 00:03:50;;;;;;;2.50;1.80;;;5.40;70.10;;;;;;5023728;28;20203;-85
2021/01/22 00:06:16;;;;;;;2.60;1.97;;;5.40;70.10;;;;;;5024062;28;20261;-82
2021/01/22 00:08:42;;;;;;;3.03;2.03;;;5.40;70.10;;;;;;5013514;28;20200;-83
2021/01/22 00:11:10;;;;;;;2.40;1.90;;;5.40;70.10;;;;;;5027650;28;20222;-83
2021/01/22 00:13:36;;;;;;;2.60;2.00;;;5.50;70.30;;;;;;5024946;28;20203;-87
2021/01/22 00:16:03;;;;;;;2.20;1.97;;;5.50;70.30;;;;;;5020435;28;20218;-83
2021/01/22 00:18:29;;;;;;;3.27;1.73;;;5.60;70.40;;;;;;5021046;28;20199;-83
2021/01/22 00:20:55;;;;;;;2.47;2.00;;;5.70;70.40;;;;;;5020495;28;20235;-83
2021/01/22 00:23:21;;;;;;;1.40;1.30;;;5.80;70.60;;;;;;5021379;28;20191;-82
2021/01/22 00:25:49;;;;;;;1.93;1.30;;;6.00;68.10;;;;;;5010678;28;20242;-83
2021/01/22 00:28:16;;;;;;;1.40;1.10;;;6.70;60.70;;;;;;5024886;28;20199;-86
2021/01/22 00:30:42;;;;;;;1.30;0.90;;;7.20;59.20;;;;;;5016137;28;20215;-82
2021/01/22 00:33:08;;;;;;;1.03;0.97;;;7.50;57.00;;;;;;5017010;28;20218;-84
2021/01/22 00:35:53;;;;;;;1.10;1.00;;;7.70;55.50;;;;;;5020991;28;20232;-82
2021/01/22 00:38:20;;;;;;;1.00;0.90;;;7.70;55.20;;;;;;5030286;28;20197;-84
2021/01/22 00:40:46;;;;;;;1.83;1.20;;;7.70;55.30;;;;;;5018911;28;20694;-86
2021/01/22 00:43:12;;;;;;;1.47;1.10;;;7.70;55.30;;;;;;5027797;28;20697;-85
2021/01/22 00:45:39;;;;;;;1.87;1.10;;;7.60;55.00;;;;;;5023669;28;20230;-85
2021/01/22 00:48:06;;;;;;;2.25;1.10;;;7.60;54.90;;;;;;5022836;28;20196;-89
2021/01/22 00:50:33;;;;;;;2.40;1.20;;;7.60;55.30;;;;;;5014111;28;20242;-85
2021/01/22 00:52:59;;;;;;;2.27;1.10;;;7.40;55.30;;;;;;5025508;28;20203;-85
2021/01/22 00:55:25;;;;;;;1.20;1.10;;;7.40;55.70;;;;;;5021249;28;20235;-87
2021/01/22 00:57:52;;;;;;;1.40;1.20;;;7.40;55.30;;;;;;5017469;28;20633;-85
2021/01/22 01:00:19;;;;;;;1.50;1.40;;;7.40;54.90;;;;;;5024238;28;20227;-85
2021/01/22 01:02:46;;;;;;;1.30;1.20;;;7.40;55.70;;;;;;5023276;28;20191;-84
2021/01/22 01:05:14;;;;;;;1.38;1.27;;;7.40;55.40;;;;;;5020022;28;20273;-87
2021/01/22 01:07:41;;;;;;;2.30;1.57;;;7.40;55.10;;;;;;5023192;28;20264;-85
2021/01/22 01:10:08;;;;;;;1.73;1.60;;;7.40;55.10;;;;;;5021139;28;20230;-88
2021/01/22 01:12:34;;;;;;;3.20;1.50;;;7.30;55.70;;;;;;5018296;28;20230;-87
2021/01/22 01:15:01;;;;;;;2.35;1.80;;;7.30;56.00;;;;;;5018091;28;20233;-85
2021/01/22 01:17:27;;;;;;;1.53;1.40;;;7.30;55.60;;;;;;5010462;28;20573;-85
2021/01/22 01:19:54;;;;;;;1.87;1.73;;;7.30;56.20;;;;;;5014318;28;20593;-90
2021/01/22 01:22:20;;;;;;;1.83;1.50;;;7.20;56.50;;;;;;5017059;28;20203;-90
2021/01/22 01:24:47;;;;;;;2.73;1.90;;;7.10;56.80;;;;;;5019491;28;20739;-87
2021/01/22 01:27:13;;;;;;;1.67;1.57;;;7.10;56.70;;;;;;5011683;28;20253;-87
2021/01/22 01:29:39;;;;;;;2.40;1.53;;;7.00;58.90;;;;;;5017626;28;20639;-88
2021/01/22 01:32:12;;;;;;;2.13;1.80;;;7.00;57.70;;;;;;5010864;28;20573;-86
2021/01/22 01:34:39;;;;;;;2.63;1.47;;;6.90;57.60;;;;;;5023050;28;20694;-86
2021/01/22 01:37:06;;;;;;;1.77;1.50;;;6.90;57.70;;;;;;5017590;28;20799;-86
2021/01/22 01:39:32;;;;;;;1.80;1.50;;;6.80;58.30;;;;;;5015568;28;20635;-85
2021/01/22 01:41:58;;;;;;;1.60;1.50;;;6.90;58.60;;;;;;5019557;28;20249;-85
2021/01/22 01:44:24;;;;;;;1.60;1.50;;;6.80;58.60;;;;;;5020752;28;20203;-88
2021/01/22 01:46:51;;;;;;;1.65;1.55;;;6.80;58.90;;;;;;5015142;28;20248;-85
2021/01/22 01:49:17;;;;;;;1.67;1.50;;;6.80;58.90;;;;;;5021127;28;20726;-84
2021/01/22 01:51:43;;;;;;;2.80;1.60;;;6.80;59.40;;;;;;5020670;28;20227;-85
2021/01/22 01:54:11;;;;;;;2.40;1.80;;;6.70;59.40;;;;;;5026796;28;20595;-89
2021/01/22 01:56:38;;;;;;;2.43;1.90;;;6.70;60.80;;;;;;5020127;28;20224;-86
2021/01/22 01:59:04;;;;;;;1.83;1.70;;;6.70;61.90;;;;;;5024542;28;20215;-85
2021/01/22 02:01:32;;;;;;;2.10;1.70;;;6.60;62.60;;;;;;5014231;28;20235;-86
2021/01/22 02:03:59;;;;;;;2.77;1.73;;;6.60;61.30;;;;;;5023369;28;20203;-85
2021/01/22 02:06:25;;;;;;;1.80;1.60;;;6.60;61.50;;;;;;5025379;28;20226;-87
2021/01/22 02:08:53;;;;;;;1.80;1.60;;;6.60;62.10;;;;;;5021692;28;20202;-85
2021/01/22 02:11:20;;;;;;;1.70;1.60;;;6.60;62.90;;;;;;5020206;28;20227;-85
2021/01/22 02:13:49;;;;;;;2.70;1.60;;;6.50;65.70;;;;;;5022965;28;20232;-85
2021/01/22 02:16:16;;;;;;;1.87;1.73;;;6.50;63.20;;;;;;5021271;28;20596;-85
2021/01/22 02:18:45;;;;;;;2.13;1.87;;;6.50;62.60;;;;;;5024871;28;20203;-88
2021/01/22 02:21:21;;;;;;;2.07;1.60;;;6.50;61.90;;;;;;5016250;28;20265;-85
2021/01/22 02:23:49;;;;;;;2.10;1.60;;;6.50;62.40;;;;;;5008563;28;20207;-86
2021/01/22 02:26:41;;;;;;;2.47;1.67;;;6.50;63.10;;;;;;5020410;28;20728;-85
2021/01/22 02:29:11;;;;;;;2.00;1.80;;;6.50;65.80;;;;;;5006420;28;20191;-86
2021/01/22 02:31:42;;;;;;;1.50;1.40;;;6.40;66.10;;;;;;5012091;28;20249;-89
2021/01/22 02:34:11;;;;;;;2.50;1.73;;;6.40;65.90;;;;;;5016314;28;20203;-85
2021/01/22 02:36:41;;;;;;;5.83;3.60;;;6.40;64.30;;;;;;5020738;28;20230;-86
2021/01/22 02:39:10;;;;;;;2.60;2.00;;;6.30;67.50;;;;;;5008352;28;20199;-88
2021/01/22 02:41:41;;;;;;;2.33;2.03;;;6.30;68.20;;;;;;5011046;28;20229;-85
2021/01/22 02:44:08;;;;;;;1.83;1.70;;;6.30;67.90;;;;;;5014629;28;20202;-87
2021/01/22 02:46:35;;;;;;;2.10;1.60;;;6.40;65.00;;;;;;5007650;28;20361;-87
2021/01/22 02:49:03;;;;;;;2.27;1.60;;;6.30;67.60;;;;;;5017983;28;20491;-86
2021/01/22 02:51:29;;;;;;;2.10;1.60;;;6.30;65.60;;;;;;5016981;28;20708;-85
2021/01/22 02:53:56;;;;;;;2.70;1.70;;;6.30;66.10;;;;;;5014969;28;20296;-87
2021/01/22 02:56:33;;;;;;;2.23;1.57;;;6.40;66.30;;;;;;5019803;28;20352;-84
2021/01/22 02:59:10;;;;;;;2.00;1.80;;;6.30;65.60;;;;;;5013217;28;20676;-94
2021/01/22 03:01:48;;;;;;;2.20;1.90;;;6.30;68.60;;;;;;5017468;28;20309;-88
2021/01/22 03:04:16;;;;;;;1.50;1.40;;;6.40;65.50;;;;;;5016457;28;20202;-86
2021/01/22 03:06:45;;;;;;;1.87;1.70;;;6.40;66.10;;;;;;5025580;28;20248;-85
2021/01/22 03:09:20;;;;;;;2.60;1.53;;;6.30;66.10;;;;;;5010696;28;20634;-85
2021/01/22 03:11:50;;;;;;;2.80;1.60;;;6.40;66.00;;;;;;5012945;28;20645;-85
2021/01/22 03:14:18;;;;;;;2.23;1.70;;;6.40;65.50;;;;;;5026842;28;20680;-86
2021/01/22 03:16:45;;;;;;;1.77;1.60;;;6.40;65.50;;;;;;5022012;28;20231;-84
2021/01/22 03:19:11;;;;;;;1.70;1.60;;;6.50;65.30;;;;;;5022793;28;20219;-87
2021/01/22 03:21:38;;;;;;;3.10;1.70;;;6.50;66.00;;;;;;5010541;28;20250;-86
2021/01/22 03:24:05;;;;;;;4.47;1.80;;;6.60;66.00;;;;;;5012568;28;20283;-84
2021/01/22 03:26:31;;;;;;;2.60;1.73;;;6.60;65.00;;;;;;5016220;28;20230;-85
2021/01/22 03:28:58;;;;;;;1.87;1.70;;;6.60;65.50;;;;;;5023733;28;20238;-88
2021/01/22 03:31:25;;;;;;;3.43;1.70;;;6.60;66.90;;;;;;5029264;28;20218;-86
2021/01/22 03:33:51;;;;;;;3.07;1.80;;;6.60;66.10;;;;;;5020696;28;20206;-86
2021/01/22 03:36:19;;;;;;;2.57;2.07;;;6.60;65.80;;;;;;5013054;28;20318;-88
2021/01/22 03:38:45;;;;;;;2.33;1.80;;;6.60;66.60;;;;;;5009943;28;20729;-87
2021/01/22 03:41:12;;;;;;;3.90;1.77;;;6.60;66.50;;;;;;5013748;28;20322;-83
2021/01/22 03:43:39;;;;;;;2.50;1.60;;;6.60;66.50;;;;;;5025496;28;20233;-86
2021/01/22 03:46:05;;;;;;;4.43;1.90;;;6.60;65.90;;;;;;5031291;28;20286;-84
2021/01/22 03:48:32;;;;;;;3.07;1.63;;;6.70;66.00;;;;;;5028276;28;20207;-83
2021/01/22 03:50:58;;;;;;;2.43;2.00;;;6.70;65.00;;;;;;5020521;28;20322;-85
2021/01/22 03:53:27;;;;;;;1.70;1.57;;;6.80;65.50;;;;;;5022021;28;20210;-85
2021/01/22 03:55:53;;;;;;;2.30;1.60;;;6.80;64.80;;;;;;5017323;28;20306;-83
2021/01/22 03:58:20;;;;;;;1.87;1.73;;;6.90;64.60;;;;;;5020574;28;20654;-91
2021/01/22 04:00:46;;;;;;;1.80;1.60;;;6.90;64.70;;;;;;5026481;28;20257;-83
2021/01/22 04:03:12;;;;;;;2.43;2.00;;;6.90;64.50;;;;;;5018799;28;20282;-85
2021/01/22 04:05:42;;;;;;;1.50;1.33;;;7.00;64.60;;;;;;5020908;28;20262;-84
2021/01/22 04:08:08;;;;;;;3.30;1.53;;;7.20;63.10;;;;;;5022574;28;20233;-89
2021/01/22 04:10:35;;;;;;;2.33;1.57;;;7.20;63.50;;;;;;5014643;28;20653;-84
2021/01/22 04:13:01;;;;;;;1.60;1.50;;;7.20;64.30;;;;;;5010866;28;20267;-85
2021/01/22 04:15:27;;;;;;;1.83;1.60;;;7.10;64.60;;;;;;5027020;28;20230;-88
2021/01/22 04:17:54;;;;;;;1.90;1.60;;;7.30;64.40;;;;;;5030178;28;20314;-85
2021/01/22 04:20:23;;;;;;;2.17;1.80;;;7.40;63.20;;;;;;5016533;28;20293;-87
2021/01/22 04:22:51;;;;;;;1.60;1.50;;;7.50;62.10;;;;;;5015822;28;20294;-84
2021/01/22 04:25:18;;;;;;;1.40;1.30;;;7.60;62.50;;;;;;5022559;28;20221;-85
2021/01/22 04:27:45;;;;;;;2.77;1.30;;;7.60;63.30;;;;;;5014550;28;20210;-84
2021/01/22 04:30:12;;;;;;;1.47;1.37;;;7.50;64.00;;;;;;5014297;28;20861;-90
2021/01/22 04:32:40;;;;;;;2.20;1.70;;;7.40;65.60;;;;;;5016998;28;20287;-86
2021/01/22 04:35:08;;;;;;;2.10;1.40;;;7.40;65.70;;;;;;5015686;28;20242;-89
2021/01/22 04:37:35;;;;;;;4.77;1.60;;;7.40;65.50;;;;;;5012032;28;20221;-94
2021/01/22 04:40:03;;;;;;;2.20;1.50;;;7.40;66.40;;;;;;5007607;28;20202;-86
2021/01/22 04:42:30;;;;;;;2.30;1.57;;;7.30;67.20;;;;;;5017224;28;20226;-86
2021/01/22 04:44:56;;;;;;;2.20;1.60;;;7.20;69.50;;;;;;5017910;28;20243;-86
2021/01/22 04:47:22;;;;;;;1.30;1.20;;;7.20;69.10;;;;;;5027104;28;20535;-87
2021/01/22 04:49:50;;;;;;;2.40;1.50;;;7.10;69.70;;;;;;5024752;28;20204;-85
2021/01/22 04:52:18;;;;;;;1.60;1.40;;;7.10;71.00;;;;;;5025041;28;20702;-85
2021/01/22 04:54:46;;;;;;;2.37;1.40;;;7.00;71.80;;;;;;5030397;28;20265;-85
2021/01/22 04:57:14;;;;;;;2.70;1.67;;;6.90;71.80;;;;;;5020745;28;20236;-89
2021/01/22 04:59:48;;;;;;;1.97;1.50;;;6.90;71.70;;;;;;5018384;28;20653;-87
2021/01/22 05:02:20;;;;;;;1.67;1.57;;;7.00;71.80;;;;;;5013791;28;20218;-86
2021/01/22 05:04:47;;;;;;;2.87;1.50;;;7.00;71.80;;;;;;5020524;28;20298;-86
2021/01/22 05:07:14;;;;;;;1.53;1.43;;;7.00;71.80;;;;;;5021497;28;20530;-87
2021/01/22 05:09:41;;;;;;;1.60;1.50;;;7.00;71.80;;;;;;5016743;28;20206;-89
2021/01/22 05:12:09;;;;;;;1.63;1.37;;;7.10;71.90;;;;;;5006422;28;20591;-89
2021/01/22 05:14:36;;;;;;;2.63;1.40;;;7.10;71.90;;;;;;5019785;28;20205;-86
2021/01/22 05:17:04;;;;;;;1.47;1.37;;;7.10;71.90;;;;;;5007168;28;20345;-87
2021/01/22 05:19:31;;;;;;;1.37;1.20;;;7.00;71.80;;;;;;5026829;28;20209;-87
2021/01/22 05:21:59;;;;;;;1.67;1.50;;;7.00;71.80;;;;;;5016888;28;20223;-87
2021/01/22 05:24:29;;;;;;;1.60;1.33;;;7.00;72.40;;;;;;5010412;28;20202;-86
2021/01/22 05:27:00;;;;;;;1.97;1.20;;;7.00;74.40;;;;;;5008569;28;20285;-88
2021/01/22 05:29:27;;;;;;;1.50;1.40;;;6.90;73.70;;;;;;5014097;28;20198;-89
2021/01/22 05:31:54;;;;;;;1.73;1.20;;;6.90;74.20;;;;;;5016589;28;20245;-84
2021/01/22 05:34:20;;;;;;;1.73;1.30;;;6.80;74.10;;;;;;5021355;28;20226;-87
2021/01/22 05:36:49;;;;;;;1.53;1.30;;;6.90;74.60;;;;;;5025291;28;20238;-84
2021/01/22 05:39:21;;;;;;;1.33;1.20;;;6.90;74.90;;;;;;5014394;28;20210;-86
2021/01/22 05:41:51;;;;;;;1.60;1.40;;;6.80;75.00;;;;;;5015866;28;20257;-86
2021/01/22 05:44:22;;;;;;;1.40;1.30;;;6.80;75.00;;;;;;5019838;28;20199;-86
2021/01/22 05:47:04;;;;;;;1.80;1.27;;;6.80;75.40;;;;;;5015411;28;20234;-85
2021/01/22 05:49:31;;;;;;;2.07;1.40;;;6.80;75.60;;;;;;5013574;28;20213;-87
2021/01/22 05:51:57;;;;;;;1.23;1.13;;;6.80;75.80;;;;;;5012358;28;20610;-87
2021/01/22 05:54:34;;;;;;;2.63;1.13;;;6.70;76.30;;;;;;5016367;28;20213;-87
2021/01/22 05:57:01;;;;;;;1.73;1.63;;;6.60;76.30;;;;;;5012798;28;20678;-87
2021/01/22 05:59:27;;;;;;;2.70;1.70;;;6.50;76.90;;;;;;5012797;28;20226;-84
2021/01/22 06:01:53;;;;;;;1.57;1.27;;;6.40;77.00;;;;;;5009183;28;20235;-87
2021/01/22 06:04:21;;;;;;;1.60;1.50;;;6.30;77.50;;;;;;5014720;28;20253;-87
2021/01/22 06:06:49;;;;;;;1.70;1.10;;;6.20;78.20;;;;;;5021749;28;20766;-84
2021/01/22 06:09:31;;;;;;;2.10;1.67;;;6.00;78.80;;;;;;5018996;28;20662;-84
2021/01/22 06:12:01;;;;;;;1.60;1.47;;;6.00;79.40;;;;;;5009367;28;20780;-84
2021/01/22 06:14:35;;;;;;;1.43;1.33;;;6.00;79.80;;;;;;5010867;28;20190;-85
2021/01/22 06:17:07;;;;;;;1.77;1.37;;;6.00;79.80;;;;;;5018467;28;20226;-84
2021/01/22 06:19:40;;;;;;;1.70;1.60;;;6.00;79.70;;;;;;5007744;28;20204;-84
2021/01/22 06:22:11;;;;;;;1.67;1.50;;;6.00;79.90;;;;;;5000789;28;20697;-87
2021/01/22 06:24:38;;;;;;;1.60;1.50;;;6.00;79.60;;;;;;5008405;28;20273;-84
2021/01/22 06:27:11;;;;;;;1.63;1.40;;;6.00;79.50;;;;;;5019888;28;20556;-87
2021/01/22 06:29:41;;;;;;;1.33;1.23;;;6.00;79.20;;;;;;5025890;28;20199;-86
2021/01/22 06:32:25;;;;;;;2.00;1.40;;;6.00;79.30;;;;;;5024044;28;20709;-83
2021/01/22 06:34:52;;;;;;;1.60;1.30;;;5.90;79.40;;;;;;5017999;28;20198;-84
2021/01/22 06:37:19;;;;;;;1.60;1.50;;;5.80;80.50;;;;;;4996709;28;20223;-85
2021/01/22 06:39:46;;;;;;;1.83;1.67;;;5.80;80.70;;;;;;5014504;28;20684;-87
2021/01/22 06:42:13;;;;;;;1.40;1.30;;;5.70;81.40;;;;;;5013799;28;20222;-85
2021/01/22 06:44:39;;;;;;;2.97;1.50;;;5.70;80.90;;;;;;5028514;28;20256;-84
2021/01/22 06:47:24;;;;;;;1.63;1.53;;;5.60;80.90;;;;;;5034596;28;20226;-84
2021/01/22 06:49:50;;;;;;;1.80;1.70;;;5.70;81.10;;;;;;5016506;28;20196;-84
2021/01/22 06:52:17;;;;;;;1.47;1.13;;;5.70;80.90;;;;;;5031370;28;20241;-84
2021/01/22 06:58:25;;;;;;;2.17;1.73;;;5.60;81.20;;;;;;5007163;28;20245;-85
2021/01/22 07:00:54;;;;;;;1.50;1.37;;;5.40;81.70;;;;;;5397537;22;20583;-83
2021/01/22 07:12:53;;;;;;;2.40;1.90;;;5.40;83.00;;;;;;5001698;28;20227;-83
2021/01/22 07:15:29;;;;;;;2.13;1.53;;;5.50;82.60;;;;;;4995200;28;20202;-85
2021/01/22 07:17:58;;;;;;;2.47;1.97;;;5.70;81.60;;;;;;5011156;28;20229;-83
2021/01/22 07:20:28;;;;;;;1.97;1.57;;;5.80;81.00;;;;;;5036633;28;20230;-84
2021/01/22 07:22:56;;;;;;;2.50;1.90;;;5.80;81.00;;;;;;5034868;28;20666;-83
2021/01/22 07:25:55;;;;;;;3.67;2.30;;;5.90;81.00;;;;;;5039458;28;20234;-84
2021/01/22 07:28:23;;;;;;;2.33;1.90;;;5.90;80.20;;;;;;5029150;28;20249;-85
2021/01/22 07:30:50;;;;;;;3.23;2.37;;;6.00;80.40;;;;;;5026662;28;20226;-85
2021/01/22 07:33:37;;;;;;;3.67;2.30;;;6.20;80.30;;;;;;5032895;28;20217;-86
2021/01/22 07:36:07;;;;;;;4.30;2.20;;;6.30;78.70;;;;;;5032644;28;20712;-85
2021/01/22 07:38:40;;;;;;;3.77;2.20;;;6.30;78.90;;;;;;5027565;28;20208;-82
2021/01/22 07:41:08;;;;;;;3.33;2.00;;;6.30;79.10;;;;;;5029661;28;20241;-84
2021/01/22 07:47:33;;;;;;;3.03;1.70;;;6.20;78.60;;;;;;5035968;28;20222;-83
2021/01/22 07:50:02;;;;;;;2.73;2.40;;;6.30;78.40;;;;;;5035292;28;20286;-86
2021/01/22 07:52:29;;;;;;;3.60;1.97;;;6.20;78.90;;;;;;5053555;28;20262;-87
2021/01/22 07:55:03;;;;;;;2.70;1.50;;;6.20;78.70;;;;;;5041319;28;20285;-84
2021/01/22 07:57:44;;;;;;;3.70;1.73;;;6.20;78.10;;;;;;5034622;28;20249;-83
2021/01/22 08:00:13;;;;;;;3.57;1.50;;;6.40;78.30;;;;;;5035307;28;20657;-85
2021/01/22 08:05:40;;;;;;;3.13;1.50;;;6.20;77.80;;;;;;5030100;28;20576;-84
2021/01/22 08:12:12;;;;;;;3.70;1.93;;;6.40;77.80;;;;;;5039112;28;20226;-84
2021/01/22 08:14:40;;;;;;;5.50;2.27;;;6.60;77.00;;;;;;5026387;28;20625;-85
2021/01/22 08:20:29;;;;;;;3.77;2.23;;;7.10;72.00;;;;;;5038591;28;20222;-86
2021/01/22 08:22:58;;;;;;;2.70;1.80;;;7.40;72.30;;;;;;5041046;28;20198;-87
2021/01/22 08:25:29;;;;;;;2.10;1.40;;;7.70;71.30;;;;;;5042038;28;20318;-87
2021/01/22 08:27:58;;;;;;;3.50;1.90;;;7.90;66.40;;;;;;5039149;28;20195;-83
2021/01/22 08:30:28;;;;;;;2.83;1.93;;;8.20;67.30;;;;;;5041220;28;20289;-86
2021/01/22 08:33:03;;;;;;;1.95;1.40;;;8.40;64.00;;;;;;5041346;28;20191;-86
2021/01/22 09:04:37;;;;;;;3.42;1.10;;;10.70;49.00;;;;;;5022819;28;20218;-85
2021/01/22 09:07:11;;;;;;;3.22;1.40;;;11.70;48.30;;;;;;5028099;28;20247;-85
2021/01/22 09:10:37;;;;;;;4.05;1.45;;;12.40;45.60;;;;;;5024793;28;20277;-85
2021/01/22 09:20:16;;;;;;;2.47;1.20;;;14.80;36.30;;;;;;5021519;28;20194;-85
2021/01/22 09:27:04;;;;;;;2.92;1.20;;;14.10;38.60;;;;;;5024102;28;20189;-85
2021/01/22 09:29:57;;;;;;;4.10;1.20;;;14.40;37.70;;;;;;5017938;28;20214;-85
2021/01/22 09:32:50;;;;;;;2.65;1.23;;;13.60;38.20;;;;;;5016493;28;20238;-85
2021/01/22 09:55:52;;;;;;;4.63;1.48;;;15.00;35.80;;;;;;5031652;28;20583;-86
2021/01/22 09:58:40;;;;;;;7.95;2.50;;;15.70;35.60;;;;;;5049907;28;20222;-83
2021/01/22 10:15:23;;;;;;;2.45;1.60;;;17.00;30.80;;;;;;5039726;28;20182;-81
2021/01/22 10:55:59;;;;;;;4.20;1.48;;;15.10;34.70;;;;;;5041788;28;20333;-83
2021/01/22 11:04:21;;;;;;;2.10;1.10;;;14.90;34.10;;;;;;5085852;22;20229;-85
2021/01/22 11:06:47;;;;;;;1.13;1.02;;;14.40;35.00;;;;;;5059841;28;20292;-85
2021/01/22 11:09:49;;;;;;;3.25;1.08;;;14.70;35.00;;;;;;5059058;28;20277;-83
2021/01/22 11:12:41;;;;;;;2.30;0.93;;;15.20;34.80;;;;;;5053926;28;20232;-84
2021/01/22 11:15:08;;;;;;;2.15;1.17;;;14.90;33.70;;;;;;5044298;28;20225;-90
2021/01/22 11:24:22;;;;;;;0.90;0.90;;;14.10;35.30;;;;;;5059465;28;20284;-84
2021/01/22 11:26:48;;;;;;;2.60;1.10;;;13.20;37.60;;;;;;5063593;28;20264;-86
2021/01/22 11:29:42;;;;;;;5.00;1.00;;;13.20;38.50;;;;;;5059818;28;20190;-84
2021/01/22 11:32:09;;;;;;;1.63;1.00;;;12.90;39.40;;;;;;5059107;28;20270;-86
2021/01/22 11:34:52;;;;;;;2.50;1.00;;;12.90;40.50;;;;;;5043474;28;20225;-85
2021/01/22 11:44:02;;;;;;;1.15;0.80;;;12.60;40.20;;;;;;5057655;28;20208;-84
2021/01/22 11:46:28;;;;;;;1.73;1.13;;;12.50;40.40;;;;;;5058206;28;20218;-83
2021/01/22 11:49:23;;;;;;;1.77;1.08;;;12.30;41.30;;;;;;5061939;28;20232;-85
2021/01/22 14:10:41;;;;;;;1.67;1.20;;;11.50;44.10;;;;;;5831774;22;20229;-82
2021/01/22 14:13:07;;;;;;;2.65;1.20;;;11.60;44.70;;;;;;4939629;28;20225;-81
2021/01/22 14:16:01;;;;;;;1.55;1.45;;;11.50;44.00;;;;;;4943175;28;20277;-81
2021/01/22 14:25:16;;;;;;;3.35;1.30;;;11.50;45.40;;;;;;4933445;28;20233;-84
2021/01/22 14:44:57;;;;;;;1.83;1.38;;;10.80;47.50;;;;;;4932019;28;20200;-82
2021/01/22 14:47:40;;;;;;;4.30;1.50;;;10.70;47.50;;;;;;4922015;28;20215;-84
2021/01/22 14:50:36;;;;;;;4.78;1.70;;;10.60;47.40;;;;;;4932619;28;20288;-82
2021/01/22 14:53:04;;;;;;;4.20;1.85;;;10.50;47.20;;;;;;4935700;28;20198;-83
2021/01/22 15:01:28;;;;;;;4.13;1.85;;;10.40;49.60;;;;;;5481946;22;20234;-83
2021/01/22 15:04:51;;;;;;;3.25;1.60;;;10.30;49.30;;;;;;5037359;28;20218;-81
2021/01/22 15:07:23;;;;;;;5.35;2.13;;;10.20;49.80;;;;;;5036784;28;20230;-81
2021/01/22 15:09:51;;;;;;;4.32;1.90;;;10.10;50.70;;;;;;5027999;28;20281;-82
2021/01/22 15:12:19;;;;;;;2.75;1.70;;;10.00;50.90;;;;;;5027126;28;20249;-84
2021/01/22 15:14:47;;;;;;;2.95;2.00;;;10.00;51.30;;;;;;5033348;28;20274;-82
2021/01/22 15:17:14;;;;;;;3.13;1.95;;;9.90;53.00;;;;;;5028132;28;20569;-82
2021/01/22 15:19:46;;;;;;;5.07;1.70;;;9.90;53.70;;;;;;5033519;28;20289;-82
2021/01/22 15:25:41;;;;;;;3.13;2.20;;;9.80;53.60;;;;;;5025105;28;20166;-82
2021/01/22 15:28:08;;;;;;;4.55;1.98;;;9.80;53.90;;;;;;5038787;28;20236;-84
2021/01/22 15:30:34;;;;;;;5.45;2.50;;;9.60;54.50;;;;;;5035952;28;20703;-83
2021/01/22 15:33:33;;;;;;;3.92;1.92;;;9.60;55.00;;;;;;5040440;28;20258;-83
2021/01/22 15:39:37;;;;;;;3.28;2.30;;;9.40;56.00;;;;;;5022607;28;20565;-83
2021/01/22 15:42:03;;;;;;;3.33;2.20;;;9.30;56.80;;;;;;5031385;28;20199;-82
2021/01/22 15:44:42;;;;;;;6.03;2.65;;;9.30;56.80;;;;;;5037260;28;20223;-82
2021/01/22 15:50:32;;;;;;;6.93;3.67;;;9.20;57.90;;;;;;5036672;28;20228;-81
2021/01/22 15:53:15;;;;;;;6.50;2.50;;;9.10;57.80;;;;;;5045313;28;20234;-82
2021/01/22 15:56:20;;;;;;;5.78;2.67;;;9.10;58.40;;;;;;5037135;28;20222;-82
2021/01/22 15:58:47;;;;;;;4.93;2.95;;;9.00;59.30;;;;;;5035432;28;20238;-82
2021/01/22 16:01:13;;;;;;;6.22;4.40;;;9.00;59.30;;;;;;5054418;28;20301;-82
2021/01/22 16:07:03;;;;;;;6.22;2.88;;;8.90;60.10;;;;;;5050023;28;20268;-82
2021/01/22 16:09:51;;;;;;;7.13;3.70;;;8.80;60.50;;;;;;5056044;28;20320;-82
2021/01/22 16:12:34;;;;;;;6.05;4.22;;;8.80;60.70;;;;;;5026030;28;20819;-82
2021/01/22 16:22:29;;;;;;;6.78;3.20;;;8.80;60.90;;;;;;5063441;28;20192;-82
2021/01/22 16:24:56;;;;;;;8.80;3.05;;;8.80;62.20;;;;;;5061373;28;20194;-82
2021/01/22 16:27:23;;;;;;;6.53;2.95;;;8.80;61.50;;;;;;5064281;28;20230;-83
2021/01/22 16:29:55;;;;;;;7.40;2.95;;;8.80;61.00;;;;;;5062765;28;20236;-81
2021/01/22 16:32:21;;;;;;;5.65;2.67;;;8.70;61.30;;;;;;5063598;28;20198;-82
2021/01/22 16:35:09;;;;;;;8.05;5.25;;;8.70;61.20;;;;;;5059271;28;20217;-82
2021/01/22 16:44:36;;;;;;;11.63;6.65;;;8.70;60.90;;;;;;5059522;28;20705;-82
2021/01/22 16:57:20;;;;;;;10.68;3.10;;;8.20;64.30;;;;;;5055650;28;20272;-83
2021/01/22 16:59:47;;;;;;;9.95;3.38;;;8.20;64.70;;;;;;5424673;23;20241;-82
2021/01/22 17:02:13;;;;;;;7.80;4.00;;;8.10;66.00;;;;;;5039244;28;20215;-82
2021/01/22 17:05:10;;;;;;;7.30;3.60;;;8.00;66.60;;;;;;5040429;28;20191;-83
2021/01/22 17:07:36;;;;;;;6.45;4.55;;;7.90;67.10;;;;;;5039767;28;20293;-86
2021/01/22 17:10:44;;;;;;;7.60;4.97;;;7.80;67.80;;;;;;5039417;28;20297;-83
2021/01/22 17:13:12;;;;;;;5.82;4.63;;;7.80;68.50;;;;;;5039401;28;20269;-83
2021/01/22 17:15:39;;;;;;;7.73;3.07;;;7.70;68.90;;;;;;5037041;28;20257;-84
2021/01/22 17:21:28;;;;;;;10.32;3.58;;;7.50;72.30;;;;;;5027493;28;20233;-85
2021/01/22 17:23:54;;;;;;;9.18;3.63;;;7.40;72.30;;;;;;5029799;28;20233;-83
2021/01/22 17:26:20;;;;;;;6.50;3.30;;;7.40;72.30;;;;;;5026788;28;20226;-84
2021/01/22 17:28:47;;;;;;;6.43;3.27;;;7.30;72.20;;;;;;5026021;28;20227;-87
2021/01/22 17:31:14;;;;;;;7.93;3.30;;;7.20;72.00;;;;;;5031290;28;20301;-87
2021/01/22 17:33:40;;;;;;;9.90;4.50;;;7.10;71.90;;;;;;5023281;28;20207;-83
2021/01/22 17:36:07;;;;;;;8.07;4.07;;;7.10;73.20;;;;;;5023886;28;20252;-85
2021/01/22 17:38:35;;;;;;;6.43;3.40;;;7.20;74.00;;;;;;5026314;28;20220;-83
2021/01/22 17:41:02;;;;;;;7.50;3.93;;;7.10;71.90;;;;;;5036423;28;20230;-87
2021/01/22 17:43:31;;;;;;;11.03;3.63;;;7.20;72.80;;;;;;5036297;28;20715;-84
2021/01/22 17:45:57;;;;;;;8.63;3.80;;;7.40;72.30;;;;;;5028132;28;20700;-83
2021/01/22 17:48:25;;;;;;;7.60;3.63;;;7.40;72.30;;;;;;5038506;28;20650;-81
2021/01/22 17:50:51;;;;;;;8.60;4.50;;;7.40;71.20;;;;;;5031208;28;20294;-82
2021/01/22 17:53:17;;;;;;;8.33;5.70;;;7.40;72.30;;;;;;5031373;28;20455;-81
2021/01/22 17:55:44;;;;;;;6.73;4.50;;;7.70;70.70;;;;;;5022361;28;20696;-82
2021/01/22 17:58:10;;;;;;;9.80;4.83;;;7.80;70.00;;;;;;5030722;28;20214;-84
2021/01/22 18:00:37;;;;;;;7.77;4.17;;;7.90;69.20;;;;;;5020154;28;20244;-83
2021/01/22 18:03:04;;;;;;;7.43;4.60;;;7.90;68.60;;;;;;5018178;28;20227;-89
2021/01/22 18:05:31;;;;;;;6.90;4.10;;;7.90;69.30;;;;;;5018833;28;20221;-86
2021/01/22 18:07:58;;;;;;;6.23;4.40;;;7.60;69.20;;;;;;5019021;28;20209;-84
2021/01/22 18:10:24;;;;;;;7.17;3.93;;;7.30;72.10;;;;;;5021788;28;20313;-83
2021/01/22 18:12:50;;;;;;;6.00;3.83;;;7.20;72.00;;;;;;5036379;28;20211;-83
2021/01/22 18:15:17;;;;;;;5.77;4.20;;;7.00;71.80;;;;;;5035483;28;20250;-82
2021/01/22 18:18:33;;;;;;;9.47;4.43;;;7.00;75.90;;;;;;5037036;28;20302;-82
2021/01/22 18:21:13;;;;;;;6.83;3.70;;;7.30;73.10;;;;;;5035337;28;20206;-83
2021/01/22 18:27:50;;;;;;;8.43;4.97;;;6.90;74.10;;;;;;5034817;28;20225;-82
2021/01/22 18:30:17;;;;;;;10.07;5.53;;;6.90;76.70;;;;;;5022363;28;20227;-84
2021/01/22 18:32:43;;;;;;;9.50;6.10;;;7.00;73.50;;;;;;5028632;28;20294;-84
2021/01/22 18:35:11;;;;;;;10.07;5.70;;;6.80;75.00;;;;;;5022675;28;20622;-84
2021/01/22 18:37:41;;;;;;;9.57;5.90;;;6.70;75.40;;;;;;5032905;28;20233;-84
2021/01/22 18:40:20;;;;;;;8.20;5.63;;;6.90;77.30;;;;;;5021127;28;20203;-82
2021/01/22 18:42:47;;;;;;;9.97;5.47;;;7.30;75.80;;;;;;5022437;28;20201;-82
2021/01/22 18:45:13;;;;;;;10.13;5.00;;;7.50;72.30;;;;;;5021758;28;20556;-82
2021/01/22 18:47:48;;;;;;;10.13;4.97;;;7.60;72.40;;;;;;5032233;28;20695;-87
2021/01/22 18:50:15;;;;;;;9.30;6.30;;;7.50;72.40;;;;;;5009966;28;20226;-87
2021/01/22 18:52:42;;;;;;;10.23;6.80;;;7.40;72.50;;;;;;5016486;28;20232;-93
2021/01/22 18:55:09;;;;;;;10.37;5.83;;;7.20;72.00;;;;;;4999824;28;20231;-87
2021/01/22 18:57:47;;;;;;;12.07;5.57;;;7.00;74.20;;;;;;5017471;28;20250;-82
2021/01/22 19:00:15;;;;;;;17.33;5.83;;;6.90;75.40;;;;;;5022954;28;20319;-83
2021/01/22 19:03:19;;;;;;;9.43;5.33;;;6.70;75.20;;;;;;5015988;28;20624;-82
2021/01/22 19:05:57;;;;;;;12.87;8.20;;;6.40;76.60;;;;;;5025365;28;20658;-84
2021/01/22 19:08:26;;;;;;;11.70;6.83;;;6.40;79.30;;;;;;5029452;28;20700;-83
2021/01/22 19:10:52;;;;;;;9.50;5.90;;;6.50;80.20;;;;;;5031506;28;20409;-82
2021/01/22 19:13:26;;;;;;;10.60;6.43;;;6.40;77.80;;;;;;5020541;28;20312;-84
2021/01/22 19:15:53;;;;;;;9.97;6.47;;;6.30;78.40;;;;;;5031754;28;20245;-82
2021/01/22 19:18:20;;;;;;;11.17;6.23;;;6.50;81.60;;;;;;5036706;28;20211;-84
2021/01/22 19:20:46;;;;;;;15.77;5.87;;;6.50;78.30;;;;;;5035762;28;20230;-83
2021/01/22 19:23:45;;;;;;;15.17;7.23;;;6.40;78.70;;;;;;5028601;28;20194;-83
2021/01/22 19:26:12;;;;;;;12.67;5.60;;;6.50;81.40;;;;;;5024625;28;20193;-83
2021/01/22 19:28:38;;;;;;;15.77;7.13;;;6.70;80.30;;;;;;5030226;28;20537;-90